createdAt,value
2018-11-25T00:00:23.595Z,100.00
2018-11-25T00:02:52.632Z,100.00
2018-11-25T00:05:22.427Z,100.00
2018-11-25T00:07:51.549Z,100.00
2018-11-25T00:10:20.583Z,100.00
2018-11-25T00:12:49.701Z,100.00
2018-11-25T00:15:18.700Z,100.00
2018-11-25T00:17:47.714Z,100.00
2018-11-25T00:20:16.801Z,100.00
2018-11-25T00:22:45.839Z,100.00
2018-11-25T00:25:15.414Z,100.00
2018-11-25T00:27:44.470Z,100.00
2018-11-25T00:30:15.961Z,100.00
2018-11-25T00:32:45.193Z,100.00
2018-11-25T00:35:15.658Z,100.00
2018-11-25T00:37:48.533Z,100.00
2018-11-25T00:40:15.232Z,100.00
2018-11-25T00:42:44.954Z,100.00
2018-11-25T00:45:16.759Z,100.00
2018-11-25T00:47:45.846Z,100.00
2018-11-25T00:50:15.225Z,100.00
2018-11-25T00:52:44.189Z,100.00
2018-11-25T00:55:15.808Z,100.00
2018-11-25T00:57:44.962Z,100.00
2018-11-25T01:00:18.817Z,100.00
2018-11-25T01:02:49.376Z,100.00
2018-11-25T01:05:18.528Z,100.00
2018-11-25T01:07:47.555Z,100.00
2018-11-25T01:10:17.182Z,100.00
2018-11-25T01:12:47.172Z,100.00
2018-11-25T01:15:17.245Z,100.00
2018-11-25T01:17:46.402Z,100.00
2018-11-25T01:20:18.030Z,100.00
2018-11-25T01:22:47.085Z,100.00
2018-11-25T01:25:16.264Z,100.00
2018-11-25T01:27:45.868Z,100.00
2018-11-25T01:30:17.061Z,99.29
2018-11-25T01:32:46.098Z,99.81
2018-11-25T01:35:15.292Z,100.00
2018-11-25T01:37:44.375Z,100.00
2018-11-25T01:40:14.805Z,100.00
2018-11-25T01:42:43.885Z,100.00
2018-11-25T01:45:15.330Z,100.00
2018-11-25T01:47:44.564Z,100.00
2018-11-25T01:50:15.672Z,100.00
2018-11-25T01:52:44.870Z,100.00
2018-11-25T01:55:15.659Z,100.00
2018-11-25T01:57:44.689Z,100.00
2018-11-25T02:00:20.179Z,100.00
2018-11-25T02:02:49.532Z,100.00
2018-11-25T02:05:18.637Z,100.00
2018-11-25T02:07:47.633Z,100.00
2018-11-25T02:10:18.780Z,100.00
2018-11-25T02:12:47.833Z,100.00
2018-11-25T02:15:17.408Z,100.00
2018-11-25T02:17:46.423Z,100.00
2018-11-25T02:20:22.110Z,100.00
2018-11-25T02:22:53.634Z,100.00
2018-11-25T02:25:22.785Z,100.00
2018-11-25T02:27:52.020Z,100.00
2018-11-25T02:30:21.047Z,100.00
2018-11-25T02:32:50.079Z,100.00
2018-11-25T02:35:19.209Z,100.00
2018-11-25T02:37:48.246Z,100.00
2018-11-25T02:40:17.502Z,100.00
2018-11-25T02:42:46.551Z,100.00
2018-11-25T02:45:18.700Z,100.00
2018-11-25T02:47:47.691Z,100.00
2018-11-25T02:50:25.821Z,100.00
2018-11-25T02:52:57.328Z,100.00
2018-11-25T02:55:27.095Z,100.00
2018-11-25T02:57:56.164Z,100.00
2018-11-25T03:00:25.250Z,100.00
2018-11-25T03:02:54.223Z,100.00
2018-11-25T03:05:23.275Z,100.00
2018-11-25T03:07:52.337Z,100.00
2018-11-25T03:10:21.440Z,100.00
2018-11-25T03:12:50.417Z,100.00
2018-11-25T03:15:19.448Z,100.00
2018-11-25T03:17:48.422Z,100.00
2018-11-25T03:20:18.044Z,100.00
2018-11-25T03:22:47.097Z,100.00
2018-11-25T03:25:17.550Z,100.00
2018-11-25T03:27:46.646Z,100.00
2018-11-25T03:30:17.776Z,100.00
2018-11-25T03:32:48.151Z,100.00
2018-11-25T03:35:17.199Z,100.00
2018-11-25T03:37:46.177Z,100.00
2018-11-25T03:40:16.714Z,100.00
2018-11-25T03:42:45.920Z,100.00
2018-11-25T03:45:19.567Z,100.00
2018-11-25T03:47:48.668Z,100.00
2018-11-25T03:50:17.737Z,100.00
2018-11-25T03:52:46.738Z,100.00
2018-11-25T03:55:17.551Z,100.00
2018-11-25T03:57:46.586Z,100.00
2018-11-25T04:00:22.742Z,100.00
2018-11-25T04:02:53.752Z,100.00
2018-11-25T04:05:22.854Z,100.00
2018-11-25T04:07:51.924Z,100.00
2018-11-25T04:10:20.939Z,100.00
2018-11-25T04:12:49.988Z,100.00
2018-11-25T04:15:19.615Z,100.00
2018-11-25T04:17:48.927Z,100.00
2018-11-25T04:20:19.455Z,100.00
2018-11-25T04:22:48.887Z,100.00
2018-11-25T04:25:18.052Z,100.00
2018-11-25T04:27:47.135Z,100.00
2018-11-25T04:30:17.489Z,100.00
2018-11-25T04:32:48.962Z,100.00
2018-11-25T04:35:18.951Z,100.00
2018-11-25T04:37:47.986Z,100.00
2018-11-25T04:40:17.977Z,100.00
2018-11-25T04:42:46.964Z,100.00
2018-11-25T04:45:17.004Z,100.00
2018-11-25T04:47:46.791Z,100.00
2018-11-25T04:50:19.108Z,100.00
2018-11-25T04:52:48.256Z,100.00
2018-11-25T04:55:17.394Z,100.00
2018-11-25T04:57:49.908Z,100.00
2018-11-25T05:00:19.559Z,100.00
2018-11-25T05:02:50.608Z,100.00
2018-11-25T05:05:19.778Z,100.00
2018-11-25T05:07:48.807Z,100.00
2018-11-25T05:10:18.428Z,100.00
2018-11-25T05:12:47.490Z,100.00
2018-11-25T05:15:20.815Z,100.00
2018-11-25T05:17:50.030Z,100.00
2018-11-25T05:20:20.723Z,100.00
2018-11-25T05:22:49.689Z,100.00
2018-11-25T05:25:19.540Z,100.00
2018-11-25T05:27:48.659Z,100.00
2018-11-25T05:30:19.069Z,100.00
2018-11-25T05:32:48.064Z,100.00
2018-11-25T05:35:19.615Z,100.00
2018-11-25T05:37:48.646Z,100.00
2018-11-25T05:40:17.783Z,100.00
2018-11-25T05:42:46.804Z,100.00
2018-11-25T05:45:18.888Z,100.00
2018-11-25T05:47:48.002Z,100.00
2018-11-25T05:50:18.920Z,100.00
2018-11-25T05:52:48.011Z,100.00
2018-11-25T05:55:17.056Z,100.00
2018-11-25T05:57:46.044Z,100.00
2018-11-25T06:00:36.973Z,100.00
2018-11-25T06:03:06.000Z,100.00
2018-11-25T06:05:35.026Z,100.00
2018-11-25T06:08:05.035Z,100.00
2018-11-25T06:10:34.129Z,100.00
2018-11-25T06:13:03.165Z,100.00
2018-11-25T06:15:32.200Z,100.00
2018-11-25T06:18:01.205Z,100.00
2018-11-25T06:20:30.200Z,100.00
2018-11-25T06:22:59.205Z,100.00
2018-11-25T06:25:28.294Z,100.00
2018-11-25T06:27:57.320Z,100.00
2018-11-25T06:30:26.285Z,100.00
2018-11-25T06:32:55.281Z,100.00
2018-11-25T06:35:24.314Z,100.00
2018-11-25T06:37:53.251Z,100.00
2018-11-25T06:40:22.327Z,100.00
2018-11-25T06:42:51.295Z,100.00
2018-11-25T06:45:26.145Z,100.00
2018-11-25T06:47:56.344Z,100.00
2018-11-25T06:50:25.346Z,100.00
2018-11-25T06:52:54.374Z,100.00
2018-11-25T06:55:23.463Z,100.00
2018-11-25T06:57:52.510Z,100.00
2018-11-25T07:00:23.214Z,100.00
2018-11-25T07:02:52.289Z,100.00
2018-11-25T07:05:21.376Z,100.00
2018-11-25T07:07:50.443Z,100.00
2018-11-25T07:10:21.731Z,100.00
2018-11-25T07:12:53.237Z,100.00
2018-11-25T07:15:22.341Z,100.00
2018-11-25T07:17:51.370Z,100.00
2018-11-25T07:20:20.532Z,100.00
2018-11-25T07:22:49.497Z,100.00
2018-11-25T07:25:20.992Z,100.00
2018-11-25T07:27:50.131Z,100.00
2018-11-25T07:30:25.362Z,100.00
2018-11-25T07:32:54.541Z,100.00
2018-11-25T07:35:25.271Z,100.00
2018-11-25T07:37:54.360Z,100.00
2018-11-25T07:40:24.379Z,100.00
2018-11-25T07:42:53.496Z,100.00
2018-11-25T07:45:30.031Z,100.00
2018-11-25T07:47:53.594Z,100.00
2018-11-25T07:50:23.722Z,100.00
2018-11-25T07:52:53.148Z,100.00
2018-11-25T07:55:24.617Z,100.00
2018-11-25T07:57:55.050Z,100.00
2018-11-25T08:00:25.249Z,100.00
2018-11-25T08:02:54.331Z,100.00
2018-11-25T08:05:27.443Z,100.00
2018-11-25T08:07:56.540Z,100.00
2018-11-25T08:10:25.682Z,100.00
2018-11-25T08:12:54.703Z,100.00
2018-11-25T08:15:23.725Z,100.00
2018-11-25T08:17:52.782Z,100.00
2018-11-25T08:20:22.517Z,100.00
2018-11-25T08:22:51.773Z,100.00
2018-11-25T08:25:21.870Z,100.00
2018-11-25T08:27:51.000Z,100.00
2018-11-25T08:30:23.109Z,100.00
2018-11-25T08:32:52.685Z,100.00
2018-11-25T08:35:21.777Z,100.00
2018-11-25T08:37:50.869Z,100.00
2018-11-25T08:40:23.555Z,100.00
2018-11-25T08:42:53.111Z,100.00
2018-11-25T08:45:22.216Z,99.87
2018-11-25T08:47:51.374Z,99.97
2018-11-25T08:50:20.565Z,100.00
2018-11-25T08:52:51.211Z,100.00
2018-11-25T08:55:23.625Z,99.82
2018-11-25T08:57:52.828Z,99.98
2018-11-25T09:00:24.252Z,99.56
2018-11-25T09:02:55.057Z,99.50
2018-11-25T09:05:24.079Z,98.88
2018-11-25T09:07:53.166Z,99.31
2018-11-25T09:10:22.590Z,99.06
2018-11-25T09:12:56.170Z,98.68
2018-11-25T09:15:29.055Z,98.28
2018-11-25T09:17:58.463Z,97.74
2018-11-25T09:20:27.524Z,98.28
2018-11-25T09:22:56.575Z,98.22
2018-11-25T09:25:29.262Z,97.79
2018-11-25T09:28:00.029Z,97.05
2018-11-25T09:30:30.725Z,97.04
2018-11-25T09:32:59.858Z,96.72
2018-11-25T09:35:28.942Z,96.43
2018-11-25T09:37:58.717Z,96.64
2018-11-25T09:40:28.339Z,96.34
2018-11-25T09:42:57.337Z,95.96
2018-11-25T09:45:26.382Z,96.06
2018-11-25T09:47:55.521Z,96.26
2018-11-25T09:50:24.607Z,95.57
2018-11-25T09:52:53.617Z,95.74
2018-11-25T09:55:24.205Z,95.23
2018-11-25T09:58:00.496Z,95.94
2018-11-25T10:00:33.111Z,95.19
2018-11-25T10:03:03.286Z,95.17
2018-11-25T10:05:32.285Z,95.88
2018-11-25T10:08:01.379Z,97.01
2018-11-25T10:10:30.480Z,95.92
2018-11-25T10:12:59.508Z,94.65
2018-11-25T10:15:29.555Z,95.78
2018-11-25T10:17:59.708Z,95.22
2018-11-25T10:20:30.432Z,95.85
2018-11-25T10:22:59.411Z,95.46
2018-11-25T10:25:28.459Z,95.52
2018-11-25T10:27:57.629Z,95.39
2018-11-25T10:30:28.237Z,95.69
2018-11-25T10:33:00.193Z,95.65
2018-11-25T10:35:29.439Z,94.75
2018-11-25T10:37:58.517Z,95.63
2018-11-25T10:40:27.667Z,95.80
2018-11-25T10:42:56.663Z,96.13
2018-11-25T10:45:27.911Z,96.39
2018-11-25T10:47:57.905Z,95.05
2018-11-25T10:50:27.020Z,96.09
2018-11-25T10:52:56.028Z,95.86
2018-11-25T10:55:25.651Z,97.30
2018-11-25T10:57:54.841Z,97.41
2018-11-25T11:02:40.614Z,96.39
2018-11-25T11:05:09.751Z,96.21
2018-11-25T11:07:44.925Z,95.60
2018-11-25T11:10:14.158Z,96.11
2018-11-25T11:12:43.282Z,96.70
2018-11-25T11:15:12.875Z,96.56
2018-11-25T11:17:42.126Z,95.42
2018-11-25T11:20:11.410Z,95.53
2018-11-25T11:22:40.680Z,97.60
2018-11-25T11:25:10.277Z,97.67
2018-11-25T11:27:39.269Z,96.96
2018-11-25T11:30:10.785Z,97.43
2018-11-25T11:32:45.046Z,97.92
2018-11-25T11:35:14.056Z,97.16
2018-11-25T11:37:43.184Z,98.81
2018-11-25T11:40:13.744Z,98.49
2018-11-25T11:42:42.789Z,97.56
2018-11-25T11:45:14.365Z,97.30
2018-11-25T11:47:44.525Z,96.75
2018-11-25T11:50:16.296Z,96.41
2018-11-25T11:52:45.346Z,96.51
2018-11-25T11:55:16.015Z,97.28
2018-11-25T11:57:46.050Z,99.31
2018-11-25T12:00:24.167Z,96.01
2018-11-25T12:02:53.134Z,96.57
2018-11-25T12:05:22.205Z,96.27
2018-11-25T12:07:51.260Z,96.84
2018-11-25T12:10:20.473Z,96.90
2018-11-25T12:12:49.523Z,98.15
2018-11-25T12:15:30.779Z,97.03
2018-11-25T12:17:58.167Z,97.71
2018-11-25T12:20:29.127Z,97.67
2018-11-25T12:22:58.605Z,97.11
2018-11-25T12:25:27.606Z,97.15
2018-11-25T12:27:56.544Z,98.05
2018-11-25T12:30:25.544Z,98.47
2018-11-25T12:32:54.583Z,99.11
2018-11-25T12:35:23.644Z,98.43
2018-11-25T12:37:52.738Z,98.41
2018-11-25T12:40:22.933Z,98.42
2018-11-25T12:42:56.925Z,98.68
2018-11-25T12:45:26.076Z,96.99
2018-11-25T12:47:55.098Z,98.25
2018-11-25T12:50:26.409Z,96.81
2018-11-25T12:52:55.856Z,97.31
2018-11-25T12:55:26.574Z,97.93
2018-11-25T12:57:56.821Z,98.01
2018-11-25T13:00:29.035Z,98.07
2018-11-25T13:02:58.172Z,98.46
2018-11-25T13:05:27.341Z,98.07
2018-11-25T13:07:56.357Z,99.45
2018-11-25T13:10:25.355Z,99.09
2018-11-25T13:12:54.380Z,98.34
2018-11-25T13:15:23.429Z,99.73
2018-11-25T13:17:52.521Z,98.67
2018-11-25T13:20:21.494Z,98.77
2018-11-25T13:22:57.958Z,98.21
2018-11-25T13:25:27.075Z,98.29
2018-11-25T13:27:56.140Z,97.08
2018-11-25T13:30:29.820Z,98.18
2018-11-25T13:33:00.542Z,97.76
2018-11-25T13:35:31.808Z,97.41
2018-11-25T13:38:00.885Z,97.73
2018-11-25T13:40:29.945Z,97.31
2018-11-25T13:42:59.092Z,97.55
2018-11-25T13:45:28.203Z,96.31
2018-11-25T13:47:57.312Z,97.28
2018-11-25T13:50:26.429Z,94.90
2018-11-25T13:52:55.462Z,94.59
2018-11-25T13:55:26.365Z,94.39
2018-11-25T13:57:55.466Z,95.36
2018-11-25T14:00:45.372Z,95.30
2018-11-25T14:03:22.404Z,95.46
2018-11-25T14:05:53.268Z,95.62
2018-11-25T14:08:21.229Z,96.05
2018-11-25T14:10:57.598Z,96.30
2018-11-25T14:13:26.588Z,95.83
2018-11-25T14:15:55.707Z,95.85
2018-11-25T14:18:24.702Z,96.76
2018-11-25T14:20:53.690Z,96.21
2018-11-25T14:23:23.526Z,96.61
2018-11-25T14:25:52.897Z,96.35
2018-11-25T14:28:21.923Z,97.02
2018-11-25T14:30:50.888Z,96.24
2018-11-25T14:33:19.901Z,96.56
2018-11-25T14:35:48.897Z,96.58
2018-11-25T14:38:17.962Z,96.82
2018-11-25T14:40:47.055Z,96.92
2018-11-25T14:43:16.046Z,97.07
2018-11-25T14:45:45.059Z,97.35
2018-11-25T14:48:14.038Z,96.79
2018-11-25T14:50:43.062Z,96.89
2018-11-25T14:53:12.084Z,97.09
2018-11-25T14:55:41.116Z,97.02
2018-11-25T14:58:10.166Z,97.42
2018-11-25T15:00:39.163Z,97.79
2018-11-25T15:03:08.636Z,97.58
2018-11-25T15:05:40.213Z,97.70
2018-11-25T15:08:11.337Z,97.73
2018-11-25T15:10:40.350Z,97.49
2018-11-25T15:13:09.709Z,97.76
2018-11-25T15:15:38.748Z,98.33
2018-11-25T15:18:08.878Z,98.23
2018-11-25T15:20:37.933Z,98.71
2018-11-25T15:23:11.639Z,98.39
2018-11-25T15:25:45.092Z,98.60
2018-11-25T15:28:14.150Z,98.44
2018-11-25T15:30:43.246Z,98.80
2018-11-25T15:33:12.255Z,98.64
2018-11-25T15:35:41.376Z,98.54
2018-11-25T15:38:10.415Z,99.10
2018-11-25T15:40:40.138Z,99.52
2018-11-25T15:43:10.658Z,99.63
2018-11-25T15:45:39.816Z,100.00
2018-11-25T15:48:14.370Z,99.94
2018-11-25T15:50:43.523Z,99.72
2018-11-25T15:53:12.594Z,99.59
2018-11-25T15:55:43.024Z,100.00
2018-11-25T15:58:12.120Z,100.00
2018-11-25T16:00:41.257Z,99.73
2018-11-25T16:03:11.477Z,99.66
2018-11-25T16:05:43.119Z,100.00
2018-11-25T16:08:12.113Z,100.00
2018-11-25T16:10:41.792Z,100.00
2018-11-25T16:13:10.875Z,99.76
2018-11-25T16:15:39.913Z,99.68
2018-11-25T16:18:08.986Z,99.70
2018-11-25T16:20:38.646Z,99.76
2018-11-25T16:23:09.651Z,99.71
2018-11-25T16:25:50.127Z,99.79
2018-11-25T16:28:37.018Z,100.00
2018-11-25T16:31:06.532Z,100.00
2018-11-25T16:33:35.558Z,100.00
2018-11-25T16:36:04.707Z,100.00
2018-11-25T16:38:33.768Z,100.00
2018-11-25T16:41:02.785Z,100.00
2018-11-25T16:43:31.854Z,100.00
2018-11-25T16:46:00.856Z,100.00
2018-11-25T16:48:29.895Z,100.00
2018-11-25T16:50:59.008Z,100.00
2018-11-25T16:53:28.091Z,100.00
2018-11-25T16:55:57.156Z,100.00
2018-11-25T16:58:26.240Z,100.00
2018-11-25T17:00:55.370Z,100.00
2018-11-25T17:03:24.460Z,100.00
2018-11-25T17:05:53.936Z,100.00
2018-11-25T17:08:40.191Z,100.00
2018-11-25T17:11:09.599Z,100.00
2018-11-25T17:13:38.667Z,100.00
2018-11-25T17:16:08.777Z,100.00
2018-11-25T17:18:38.738Z,100.00
2018-11-25T17:21:07.749Z,100.00
2018-11-25T17:23:36.851Z,100.00
2018-11-25T17:26:06.076Z,100.00
2018-11-25T17:28:35.216Z,100.00
2018-11-25T17:31:04.306Z,100.00
2018-11-25T17:33:33.293Z,100.00
2018-11-25T17:36:02.362Z,100.00
2018-11-25T17:38:31.435Z,100.00
2018-11-25T17:41:00.486Z,100.00
2018-11-25T17:43:29.533Z,100.00
2018-11-25T17:45:58.541Z,100.00
2018-11-25T17:48:27.597Z,100.00
2018-11-25T17:50:56.653Z,100.00
2018-11-25T17:53:25.759Z,100.00
2018-11-25T17:55:54.899Z,100.00
2018-11-25T17:58:24.016Z,100.00
2018-11-25T18:01:10.776Z,100.00
2018-11-25T18:03:39.806Z,100.00
2018-11-25T18:06:08.829Z,100.00
2018-11-25T18:08:37.895Z,100.00
2018-11-25T18:11:07.020Z,100.00
2018-11-25T18:13:39.091Z,100.00
2018-11-25T18:16:10.493Z,100.00
2018-11-25T18:18:50.338Z,100.00
2018-11-25T18:21:23.391Z,100.00
2018-11-25T18:23:52.546Z,100.00
2018-11-25T18:26:21.646Z,100.00
2018-11-25T18:28:50.675Z,100.00
2018-11-25T18:31:19.717Z,100.00
2018-11-25T18:33:48.753Z,100.00
2018-11-25T18:36:17.768Z,100.00
2018-11-25T18:38:46.818Z,100.00
2018-11-25T18:41:15.873Z,100.00
2018-11-25T18:43:44.885Z,100.00
2018-11-25T18:46:13.982Z,100.00
2018-11-25T18:48:45.873Z,100.00
2018-11-25T18:51:15.155Z,100.00
2018-11-25T18:53:44.186Z,100.00
2018-11-25T18:56:13.196Z,100.00
2018-11-25T18:58:42.435Z,100.00
2018-11-25T19:01:31.870Z,100.00
2018-11-25T19:04:00.871Z,100.00
2018-11-25T19:06:36.527Z,100.00
2018-11-25T19:09:09.124Z,100.00
2018-11-25T19:11:38.284Z,100.00
2018-11-25T19:14:07.431Z,100.00
2018-11-25T19:16:37.646Z,100.00
2018-11-25T19:19:06.131Z,100.00
2018-11-25T19:21:35.170Z,100.00
2018-11-25T19:24:04.326Z,100.00
2018-11-25T19:26:33.413Z,100.00
2018-11-25T19:29:02.533Z,100.00
2018-11-25T19:31:31.681Z,100.00
2018-11-25T19:34:01.337Z,100.00
2018-11-25T19:36:30.407Z,100.00
2018-11-25T19:38:59.518Z,100.00
2018-11-25T19:41:28.569Z,100.00
2018-11-25T19:43:58.086Z,100.00
2018-11-25T19:46:27.242Z,100.00
2018-11-25T19:48:56.315Z,99.96
2018-11-25T19:51:25.335Z,99.65
2018-11-25T19:53:54.449Z,100.00
2018-11-25T19:56:23.488Z,99.44
2018-11-25T19:58:56.959Z,99.87
2018-11-25T20:01:26.191Z,99.69
2018-11-25T20:03:55.575Z,99.83
2018-11-25T20:06:24.574Z,99.69
2018-11-25T20:08:53.660Z,99.54
2018-11-25T20:11:22.646Z,99.52
2018-11-25T20:13:51.692Z,98.70
2018-11-25T20:18:28.750Z,99.49
2018-11-25T20:21:03.219Z,99.32
2018-11-25T20:23:32.284Z,99.83
2018-11-25T20:26:01.318Z,99.29
2018-11-25T20:28:30.373Z,99.39
2018-11-25T20:30:59.392Z,99.23
2018-11-25T20:33:33.870Z,99.58
2018-11-25T20:36:02.912Z,100.00
2018-11-25T20:38:37.231Z,100.00
2018-11-25T20:41:06.247Z,100.00
2018-11-25T20:43:35.250Z,100.00
2018-11-25T20:46:09.892Z,98.83
2018-11-25T20:48:39.214Z,99.68
2018-11-25T20:51:08.235Z,98.29
2018-11-25T20:53:42.741Z,99.62
2018-11-25T20:56:11.832Z,100.00
2018-11-25T20:58:40.865Z,99.43
2018-11-25T21:01:10.467Z,98.31
2018-11-25T21:03:39.580Z,96.62
2018-11-25T21:06:09.501Z,96.42
2018-11-25T21:08:38.556Z,97.09
2018-11-25T21:11:07.561Z,97.50
2018-11-25T21:13:36.545Z,97.43
2018-11-25T21:16:05.595Z,97.45
2018-11-25T21:18:34.624Z,98.51
2018-11-25T21:21:03.762Z,98.38
2018-11-25T21:23:32.760Z,98.51
2018-11-25T21:26:01.742Z,98.59
2018-11-25T21:28:30.756Z,98.72
2018-11-25T21:30:59.860Z,98.97
2018-11-25T21:33:28.833Z,98.95
2018-11-25T21:35:57.873Z,99.20
2018-11-25T21:38:26.899Z,99.17
2018-11-25T21:40:55.884Z,99.12
2018-11-25T21:43:24.893Z,99.18
2018-11-25T21:45:53.945Z,99.38
2018-11-25T21:48:23.164Z,99.42
2018-11-25T21:50:52.269Z,99.39
2018-11-25T21:53:21.330Z,100.00
2018-11-25T21:58:19.886Z,100.00
2018-11-25T22:00:48.917Z,99.61
2018-11-25T22:03:17.974Z,99.83
2018-11-25T22:05:47.129Z,100.00
2018-11-25T22:08:16.216Z,100.00
2018-11-25T22:10:45.349Z,100.00
2018-11-25T22:13:14.410Z,100.00
2018-11-25T22:15:43.502Z,100.00
2018-11-25T22:18:12.578Z,100.00
2018-11-25T22:20:41.801Z,99.89
2018-11-25T22:23:11.655Z,100.00
2018-11-25T22:25:40.672Z,100.00
2018-11-25T22:28:09.716Z,100.00
2018-11-25T22:30:38.704Z,100.00
2018-11-25T22:33:07.810Z,100.00
2018-11-25T22:35:37.000Z,100.00
2018-11-25T22:38:06.571Z,100.00
2018-11-25T22:40:36.157Z,100.00
2018-11-25T22:43:05.210Z,100.00
2018-11-25T22:45:34.328Z,100.00
2018-11-25T22:48:03.471Z,100.00
2018-11-25T22:50:32.765Z,100.00
2018-11-25T22:53:01.777Z,100.00
2018-11-25T22:55:30.782Z,100.00
2018-11-25T22:57:59.805Z,100.00
2018-11-25T23:00:34.851Z,100.00
2018-11-25T23:03:03.974Z,100.00
2018-11-25T23:06:51.588Z,100.00
2018-11-25T23:09:20.616Z,100.00
2018-11-25T23:11:49.675Z,100.00
2018-11-25T23:14:18.654Z,100.00
2018-11-25T23:16:47.707Z,100.00
2018-11-25T23:19:16.893Z,100.00
2018-11-25T23:21:45.916Z,100.00
2018-11-25T23:24:15.171Z,100.00
2018-11-25T23:26:44.195Z,100.00
2018-11-25T23:29:13.202Z,100.00
2018-11-25T23:31:42.256Z,100.00
2018-11-25T23:34:11.305Z,100.00
2018-11-25T23:36:40.374Z,100.00
2018-11-25T23:39:10.248Z,100.00
2018-11-25T23:41:40.077Z,100.00
2018-11-25T23:44:09.094Z,100.00
2018-11-25T23:46:38.059Z,100.00
2018-11-25T23:49:07.073Z,100.00
2018-11-25T23:51:36.243Z,100.00
2018-11-25T23:54:05.634Z,100.00
2018-11-25T23:56:34.666Z,100.00
2018-11-25T23:59:03.822Z,100.00
